West End, Virginia
Current Conditions -  °F | °C
As of 3:01 PM on Monday 22 Dec 2014 (Local Time) from KOFP Reporting Station
Haze Haze  
Wind Chill: 30°   Ceiling: 500
Heat Index: 36°   Visibility: 3mi
Dew Point: 35°   Wind: 7mph
Humidity: 97%   Direction: 10°N
Pressure: 30.12"   Gusts: NA
Location:  37.5861°N, 77.4907°W
Report Text: KOFP 222001Z AUTO 01006KT 3SM BR OVC005 02/02 A3012 RMK AO2 T00220017
Loading
Personal Weather Stations






























Interactive Weather Map New forecast layout! Learn more

10-Day Weather Forecast

Advertisements
Track Severe Weather on mobile